Rechercher aéroport 
image banner adimage banner ad
image banner ad

EKSR - Stora Dimun

Situé à Stora Dimun, Faroe Islands

ICAO - EKSR, IATA -

Données fournies par Airmate  

Information générale

Coordonnées: N61°41'7" W6°45'31"
Élévation : 305 feet MSL.
Variation magnétique : -8.1° East
Voir autres Aéroports à (unassigned)

Données opérationnelles

Accessible au public
Heure actuelle UTC:
Heure actuelle locale:
Météo à : EKVG - Vagar ( 50 km )
METAR: EKVG 280750Z AUTO 36006KT 9999 OVC026/// M01/M04 Q1007
TAF: TAF EKVG 280516Z 2806/2815 01008KT 9999 FEW022 BKN030 TEMPO 2810/2815 3000 -SHSN BKN015TCU
Voir NOTAMs / SUP AIP / TFR affectant cet aéroport [VIEW]
Fréquences de communication: [VIEW]

Pistes:

Coordonnées de l'aéroport

Adresse: Stora Dimun Faroe Islands

Vue satellite de EKSR